Grand Forks Air Force Base, ND (58204)

11:55 AM CST on February 08, 2016 (GMT -0600)
Grand Forks Air Force Base | | Change Station
CLOSE
Current Station
Airport
Location: Grand Forks AFB,
Elevation: 912 ft
Nearby Weather Stations

Elev 912 ft 47.96 °N, 97.40 °W | Updated 5 minutes ago

Freezing Rain
Freezing Rain
14 °F
Feels Like -7 °F
N
30
Wind Variable Wind from North
Gusts 39 mph

Today
High -- | Low -- °F
--% Chance of Precip.
Yesterday
High -- | Low -- °F
Precip. -- in
Pressure 30.19 in
Visibility 9.0 miles
Clouds Scattered Clouds 1700 ft
Mostly Cloudy 2300 ft
Windchill -7 °F
Dew Point 3 °F
Humidity 62%
Rainfall 0.00 in
Snow Depth Not available.
7:47 AM 5:40 PM
New Moon, 0% visible
SPECI KRDR 081750Z AUTO 36026G34KT 9SM -DZ SCT017 BKN023 M10/M16 A3019 RMK AO2 SNE10DZB40 CIG 016V023 CIG 018 RWY17
Pressure 30.19 in
Visibility 9.0 miles
Clouds Scattered Clouds 1700 ft
Mostly Cloudy 2300 ft
Windchill -7 °F
Dew Point 3 °F
Humidity 62%
Rainfall 0.00 in
Snow Depth Not available.
7:47 AM 5:40 PM
New Moon, 0% visible
SPECI KRDR 081750Z AUTO 36026G34KT 9SM -DZ SCT017 BKN023 M10/M16 A3019 RMK AO2 SNE10DZB40 CIG 016V023 CIG 018 RWY17

10-Day Weather Forecast

Almanac

Astronomy

Feb. 08, 2016 Rise Set
Actual Time
Civil Twilight
Nautical Twilight
Astronomical Twilight
Moon
Length of Visible Light
Length of Day
Tomorrow will be .
, % of the Moon is Illuminated

Today's Extremes

State Highs State Lows

Community

WunderPhotos

Upload Photos

1,891,476 photos uploaded!

WunderBlog® & News

Nearby

Air Quality

  Air Quality AQ Index Pollutant
Not available.

Snow Depth

Station Depth Elevation

Earthquake Activity

City Distance Mag. Time & Date
Minimum magnitude displayed is 2.5.

Coastal Water Temperatures

Place Temperature

Stations

Nearby Weather Stations

Station Location Temp. Windchill Dew Point Humidity Wind Precip. Elev Updated Type
                   

Watches & Warnings

Winter Weather Advisory
Issued: 11:14 AM CST Feb. 8, 2016 – National Weather Service

... Winter Weather Advisory now in effect until 6 PM CST this
evening...

* timing... expect snow showers and gusty winds to continue through
the afternoon.

* Winds / visibilities... winds gusting as high as 40 mph will
cause areas lower visibility to a mile or less with snow
showers.

* Impacts... plan on periodic low visibility affecting travel.

* Winds... northwest 20 to 30 mph with gusts up to 40 mph.

Precautionary/preparedness actions...

A Winter Weather Advisory for blowing snow means that
visibilities will be limited due to strong winds blowing snow
around. Use caution when traveling... especially in open areas.